Terminal Aerodrome Forecast
Issued by NWS

Home | Current Version | Previous Version | Text Only | Print | Product List | Glossary On
Versions: 1 2 3 4 5 6 7 8 9 10 11 12 13 14 15 16 17 18 19 20 21 22 23 24 25 26 27 28 29 30 31 32 33 34 35 36 37 38 39 40 41 42 43 44
000
FTUS44 KOHX 050500
TAFCKV
TAF
KCKV 050523Z 0506/0606 35020G23KT 1SM -SN BR OVC007
      TEMPO 0506/0510 1/4SM +SN FG VV001
     FM051500 36012G20KT 4SM -SN BR OVC015
     FM051800 36012G20KT P6SM -SN BKN025
     FM060000 36008KT P6SM SKC=

USA.gov is the U.S. government's official web portal to all federal, state and local government web resources and services.